Forres, United Kingdom
Current Conditions -  °F | °C
As of 4:50 PM on Thursday 23 Oct 2014 (Local Time) from EGQK Reporting Station
Light Rain Light Rain  
Wind Chill: 59°   Ceiling: 5000
Heat Index: 59°   Visibility: 6mi
Dew Point: 52°   Wind: 15mph
Humidity: 77%   Direction: 200°SSW
Pressure: 29.56"   Gusts: NA
Location:  57.61°N, 3.61°W
Report Text: EGQK 231550Z AUTO 20013KT 9999 -RA FEW042/// BKN050/// 15/11 Q1001
Loading
Personal Weather Stations






























Interactive Weather Map
Tropical Storm Tracking
New forecast layout! Learn more

10-Day Weather Forecast

Advertisements
Track Severe Weather on mobile